Time;durP1;ratioP1;P1;durP2;ratioP2;P2;SDS_P1;SDS_P2;PMS_P1;PMS_P2;Temp;Humidity;BMP_temperature;BMP_pressure;BME280_temperature;BME280_humidity;BME280_pressure;Samples;Min_cycle;Max_cycle;Signal;HPM_P1;HPM_P2
2021/12/14 00:00:43;;;;;;;10.27;7.88;;;;;;;4.38;80.49;101957.47;5088123;28;20027;-49
2021/12/14 00:03:10;;;;;;;9.38;7.43;;;;;;;4.38;80.87;101954.88;5089720;28;20028;-48
2021/12/14 00:05:36;;;;;;;12.20;8.07;;;;;;;4.39;80.66;101961.84;5090977;28;20357;-49
2021/12/14 00:08:02;;;;;;;11.07;7.50;;;;;;;4.40;81.27;101962.75;5071099;28;20046;-48
2021/12/14 00:13:44;;;;;;;12.45;8.70;;;;;;;4.41;81.24;101960.22;5053775;28;20395;-48
2021/12/14 00:16:14;;;;;;;10.38;8.13;;;;;;;4.40;80.57;101958.41;5087230;28;20368;-48
2021/12/14 00:18:40;;;;;;;12.98;8.63;;;;;;;4.41;81.29;101956.69;5089724;28;20032;-49
2021/12/14 00:21:19;;;;;;;10.73;7.43;;;;;;;4.42;80.83;101961.97;5089152;28;20642;-48
2021/12/14 00:26:35;;;;;;;11.50;8.07;;;;;;;4.43;80.51;101962.88;5089175;28;20051;-48
2021/12/14 00:29:00;;;;;;;12.43;8.93;;;;;;;4.42;81.12;101967.19;5089502;28;20028;-48
2021/12/14 00:31:26;;;;;;;14.15;10.15;;;;;;;4.43;81.28;101968.97;5090876;28;20024;-48
2021/12/14 00:33:54;;;;;;;11.63;9.07;;;;;;;4.44;80.68;101965.53;5087344;28;20059;-48
2021/12/14 00:36:21;;;;;;;13.30;8.82;;;;;;;4.44;81.12;101969.88;5086090;28;20498;-49
2021/12/14 00:38:49;;;;;;;13.57;9.35;;;;;;;4.45;80.89;101967.31;5085085;28;20074;-47
2021/12/14 00:41:18;;;;;;;13.50;9.73;;;;;;;4.45;81.29;101971.66;5087409;28;20022;-48
2021/12/14 00:43:44;;;;;;;13.55;9.23;;;;;;;4.45;81.29;101961.19;5089082;28;20028;-48
2021/12/14 00:46:12;;;;;;;12.48;8.65;;;;;;;4.45;81.29;101967.31;5090652;28;20089;-48
2021/12/14 00:48:39;;;;;;;13.75;9.27;;;;;;;4.45;80.81;101962.09;5087880;28;20027;-48
2021/12/14 00:51:05;;;;;;;11.25;9.55;;;;;;;4.47;80.46;101970.88;5087589;28;20476;-48
2021/12/14 00:53:34;;;;;;;12.93;9.15;;;;;;;4.47;81.32;101970.88;5089516;28;20028;-48
2021/12/14 00:56:02;;;;;;;12.20;8.10;;;;;;;4.47;80.75;101973.47;5082541;28;20028;-48
2021/12/14 00:58:28;;;;;;;13.40;9.18;;;;;;;4.47;81.00;101970.88;5088938;28;20119;-48
2021/12/14 01:01:01;;;;;;;11.23;8.75;;;;;;;4.48;81.28;101972.66;5085091;28;20034;-48
2021/12/14 01:03:30;;;;;;;13.55;9.05;;;;;;;4.48;80.72;101972.66;5089386;28;20027;-48
2021/12/14 01:05:58;;;;;;;11.55;9.05;;;;;;;4.49;81.09;101976.16;5087234;28;20124;-48
2021/12/14 01:08:25;;;;;;;12.65;9.13;;;;;;;4.49;80.90;101974.44;5090637;28;20051;-49
2021/12/14 01:10:53;;;;;;;13.98;9.82;;;;;;;4.49;81.08;101968.31;5090948;28;20027;-49
2021/12/14 01:13:23;;;;;;;13.13;9.63;;;;;;;4.49;81.24;101971.81;5086742;28;20111;-49
2021/12/14 01:16:18;;;;;;;12.98;9.00;;;;;;;4.49;81.04;101971.81;5086137;28;20373;-49
2021/12/14 01:18:49;;;;;;;12.90;9.25;;;;;;;4.49;81.00;101970.94;5087429;28;20036;-48
2021/12/14 01:24:06;;;;;;;12.48;8.30;;;;;;;4.51;81.06;101976.22;5071670;28;21172;-49
2021/12/14 01:26:46;;;;;;;12.63;9.17;;;;;;;4.51;81.09;101981.44;5086091;28;20063;-48
2021/12/14 01:29:14;;;;;;;13.15;8.93;;;;;;;4.52;80.73;101985.81;5087019;28;20392;-48
2021/12/14 01:31:41;;;;;;;12.98;8.80;;;;;;;4.51;80.83;101984.94;5089550;28;20016;-49
2021/12/14 01:34:12;;;;;;;13.60;9.52;;;;;;;4.52;80.63;101983.22;5085956;28;20039;-49
2021/12/14 01:36:42;;;;;;;13.82;8.75;;;;;;;4.53;81.24;101977.16;5087451;28;20024;-48
2021/12/14 01:41:58;;;;;;;13.52;8.82;;;;;;;4.53;80.42;101969.34;5087179;28;20039;-49
2021/12/14 01:44:33;;;;;;;11.30;8.88;;;;;;;4.52;81.17;101957.97;5089119;28;20030;-48
2021/12/14 01:47:06;;;;;;;11.65;8.35;;;;;;;4.54;80.46;101969.41;5090417;28;20349;-48
2021/12/14 01:49:33;;;;;;;14.25;9.50;;;;;;;4.54;80.62;101963.25;5085678;28;20492;-48
2021/12/14 01:52:04;;;;;;;13.50;8.88;;;;;;;4.56;81.21;101969.41;5090113;28;20050;-47
2021/12/14 01:54:37;;;;;;;13.93;8.48;;;;;;;4.55;80.99;101975.50;5087836;28;20048;-49
2021/12/14 01:57:07;;;;;;;11.32;8.45;;;;;;;4.54;80.40;101966.78;5089522;28;20256;-48
2021/12/14 01:59:36;;;;;;;14.55;9.55;;;;;;;4.56;80.49;101969.41;5084984;28;20032;-48
2021/12/14 02:04:42;;;;;;;12.57;8.40;;;;;;;4.57;81.29;101968.59;5087841;28;20028;-49
2021/12/14 02:07:09;;;;;;;13.73;9.15;;;;;;;4.56;80.61;101958.97;5086661;28;20661;-48
2021/12/14 02:09:36;;;;;;;11.80;8.32;;;;;;;4.57;80.38;101959.03;5089872;28;20056;-48
2021/12/14 02:12:29;;;;;;;13.77;8.93;;;;;;;4.57;80.31;101960.78;5051984;28;20395;-48
2021/12/14 02:15:09;;;;;;;14.02;8.57;;;;;;;4.57;80.58;101955.53;5065926;28;20040;-48
2021/12/14 02:17:34;;;;;;;11.07;8.00;;;;;;;4.57;81.07;101953.81;5071945;28;20039;-48
2021/12/14 02:20:00;;;;;;;11.40;8.40;;;;;;;4.58;80.44;101954.69;5075310;28;20024;-48
2021/12/14 02:22:26;;;;;;;12.23;9.20;;;;;;;4.58;80.54;101949.47;5090267;28;20441;-48
2021/12/14 02:24:51;;;;;;;11.10;8.07;;;;;;;4.58;80.85;101952.09;5091335;28;20028;-49
2021/12/14 02:27:17;;;;;;;10.60;8.73;;;;;;;4.58;80.84;101953.00;5091236;28;20503;-48
2021/12/14 02:29:44;;;;;;;10.68;8.27;;;;;;;4.59;80.34;101946.03;5092687;28;20028;-48
2021/12/14 02:32:22;;;;;;;10.70;8.00;;;;;;;4.59;80.72;101938.19;5092503;28;20020;-48
2021/12/14 02:34:51;;;;;;;12.73;8.68;;;;;;;4.59;80.47;101939.09;5070633;28;20032;-48
2021/12/14 02:37:21;;;;;;;11.30;8.43;;;;;;;4.60;80.97;101937.34;5092956;28;20092;-49
2021/12/14 02:39:49;;;;;;;11.00;7.90;;;;;;;4.60;80.67;101939.94;5092002;28;20487;-48
2021/12/14 02:42:21;;;;;;;11.65;8.23;;;;;;;4.60;80.81;101937.34;5093263;28;20179;-48
2021/12/14 02:44:49;;;;;;;9.45;7.55;;;;;;;4.60;80.75;101939.94;5093238;28;20031;-48
2021/12/14 02:47:17;;;;;;;11.38;8.02;;;;;;;4.61;80.59;101932.16;5089843;28;20028;-48
2021/12/14 02:49:43;;;;;;;11.50;8.68;;;;;;;4.60;80.21;101935.63;5053051;28;20028;-48
2021/12/14 02:52:26;;;;;;;11.02;7.13;;;;;;;4.62;80.38;101927.84;5090179;28;20036;-48
2021/12/14 02:54:55;;;;;;;10.02;7.25;;;;;;;4.62;80.40;101925.22;5091045;28;20153;-48
2021/12/14 02:57:24;;;;;;;11.23;7.88;;;;;;;4.61;80.81;101926.06;5091315;28;20016;-49
2021/12/14 02:59:54;;;;;;;10.93;7.60;;;;;;;4.63;80.26;101916.53;5091063;28;20026;-49
2021/12/14 03:02:23;;;;;;;10.20;7.50;;;;;;;4.62;80.78;101914.78;5091672;28;20034;-48
2021/12/14 03:04:53;;;;;;;10.60;6.68;;;;;;;4.64;80.91;101925.28;5067407;28;20031;-49
2021/12/14 03:07:24;;;;;;;10.00;7.32;;;;;;;4.62;80.50;101918.28;5091660;28;20540;-48
2021/12/14 03:09:58;;;;;;;10.80;7.45;;;;;;;4.64;80.94;101918.34;5093755;28;20373;-48
2021/12/14 03:12:34;;;;;;;10.02;6.82;;;;;;;4.63;80.53;101913.94;5089621;28;20028;-49
2021/12/14 03:15:13;;;;;;;7.45;6.07;;;;;;;4.64;80.11;101913.13;5089369;28;20020;-48
2021/12/14 03:17:43;;;;;;;10.13;6.85;;;;;;;4.63;80.71;101916.53;5087380;28;20028;-48
2021/12/14 03:20:28;;;;;;;8.60;7.00;;;;;;;4.65;80.88;101911.38;5091007;28;20024;-48
2021/12/14 03:23:04;;;;;;;9.45;6.72;;;;;;;4.65;80.72;101917.50;5089297;28;20023;-49
2021/12/14 03:25:31;;;;;;;9.63;6.57;;;;;;;4.66;80.96;101918.38;5062558;28;20032;-48
2021/12/14 03:31:28;;;;;;;8.98;6.45;;;;;;;4.65;80.84;101911.38;5089671;28;20035;-48
2021/12/14 03:34:02;;;;;;;9.95;7.10;;;;;;;4.64;81.03;101913.13;5091263;28;20034;-49
2021/12/14 03:36:32;;;;;;;8.68;7.15;;;;;;;4.65;80.81;101916.59;5091357;28;20117;-48
2021/12/14 03:39:09;;;;;;;9.27;6.50;;;;;;;4.65;80.75;101907.06;5089205;28;20032;-49
2021/12/14 03:42:01;;;;;;;9.02;6.88;;;;;;;4.65;80.15;101893.97;5089195;28;20028;-48
2021/12/14 03:44:29;;;;;;;6.75;5.70;;;;;;;4.66;80.50;101889.63;5084897;28;20063;-48
2021/12/14 03:47:18;;;;;;;7.82;6.05;;;;;;;4.66;80.61;101877.47;5087291;28;20531;-48
2021/12/14 03:49:58;;;;;;;8.82;6.40;;;;;;;4.66;80.61;101872.22;5083381;28;20048;-49
2021/12/14 03:52:31;;;;;;;8.48;6.20;;;;;;;4.66;80.50;101859.16;5070233;28;20040;-48
2021/12/14 03:54:59;;;;;;;7.63;6.22;;;;;;;4.68;81.05;101854.00;5090610;28;20638;-51
2021/12/14 03:57:25;;;;;;;10.82;7.18;;;;;;;4.68;80.30;101852.28;5086433;28;20688;-47
2021/12/14 03:59:52;;;;;;;8.88;6.50;;;;;;;4.69;80.88;101855.75;5084018;28;20085;-50
2021/12/14 04:02:18;;;;;;;8.27;6.65;;;;;;;4.69;80.70;101850.53;5064020;28;20020;-49
2021/12/14 04:04:50;;;;;;;7.72;6.65;;;;;;;4.70;80.32;101849.72;5089657;28;20038;-50
2021/12/14 04:07:16;;;;;;;9.20;6.95;;;;;;;4.70;80.83;101849.72;5087689;28;20021;-51
2021/12/14 04:09:42;;;;;;;9.00;6.80;;;;;;;4.70;80.63;101847.97;5088463;28;20054;-50
2021/12/14 04:12:11;;;;;;;9.32;7.50;;;;;;;4.70;80.54;101837.53;5090303;28;20081;-51
2021/12/14 04:14:41;;;;;;;7.03;5.35;;;;;;;4.69;80.09;101827.91;5086925;28;20047;-47
2021/12/14 04:17:10;;;;;;;8.48;6.28;;;;;;;4.71;80.22;101827.97;5088385;28;20024;-51
2021/12/14 04:19:36;;;;;;;8.30;6.65;;;;;;;4.70;80.63;101816.63;5070256;28;20094;-51
2021/12/14 04:22:05;;;;;;;7.88;6.60;;;;;;;4.71;80.63;101823.59;5090410;28;20023;-51
2021/12/14 04:24:34;;;;;;;9.38;6.85;;;;;;;4.71;80.65;101813.16;5086942;28;20044;-51
2021/12/14 04:27:03;;;;;;;8.02;5.85;;;;;;;4.71;80.44;101813.16;5067959;28;20534;-50
2021/12/14 04:32:53;;;;;;;7.05;5.80;;;;;;;4.71;80.23;101791.38;5067617;28;20386;-50
2021/12/14 04:35:19;;;;;;;7.72;6.38;;;;;;;4.71;80.42;101794.00;5069957;28;20476;-51
2021/12/14 04:37:55;;;;;;;8.90;7.15;;;;;;;4.72;80.19;101794.03;5090143;28;20155;-50
2021/12/14 04:54:03;;;;;;;7.70;6.10;;;;;;;4.73;80.24;101777.50;5089640;28;20076;-51
2021/12/14 04:56:32;;;;;;;7.80;6.38;;;;;;;4.73;80.32;101774.91;5088454;28;20030;-49
2021/12/14 04:59:06;;;;;;;7.18;5.78;;;;;;;4.74;80.24;101781.91;5089438;28;20016;-50
2021/12/14 05:01:35;;;;;;;9.15;6.38;;;;;;;4.74;80.86;101783.66;5088515;28;20056;-50
2021/12/14 05:04:06;;;;;;;9.52;7.20;;;;;;;4.74;80.63;101781.91;5088694;28;20602;-51
2021/12/14 05:06:45;;;;;;;7.43;5.30;;;;;;;4.74;80.13;101797.56;5072751;28;20028;-51
2021/12/14 05:09:21;;;;;;;7.45;6.03;;;;;;;4.74;80.15;101812.41;5090171;28;20514;-51
2021/12/14 05:11:53;;;;;;;7.72;6.22;;;;;;;4.75;80.11;101812.44;5090932;28;20020;-48
2021/12/14 05:14:19;;;;;;;6.97;5.80;;;;;;;4.75;80.35;101815.06;5071319;28;20455;-51
2021/12/14 05:16:44;;;;;;;6.38;5.38;;;;;;;4.75;80.61;101814.16;5089466;28;20028;-50
2021/12/14 05:19:17;;;;;;;6.22;5.15;;;;;;;4.76;80.56;101826.38;5090394;28;20438;-50
2021/12/14 05:21:47;;;;;;;6.20;5.60;;;;;;;4.78;80.12;101834.28;5070505;28;20487;-50
2021/12/14 05:24:18;;;;;;;8.60;6.25;;;;;;;4.75;80.53;101830.75;5090129;28;20176;-51
2021/12/14 05:26:48;;;;;;;7.78;6.13;;;;;;;4.76;80.05;101836.84;5072201;28;20035;-50
2021/12/14 05:29:14;;;;;;;8.05;5.82;;;;;;;4.76;80.13;101834.22;5090442;28;20024;-50
2021/12/14 05:31:50;;;;;;;8.68;5.80;;;;;;;4.79;79.79;101841.28;5090036;28;20026;-50
2021/12/14 05:34:16;;;;;;;7.80;5.68;;;;;;;4.77;79.89;101835.13;5090193;28;20040;-49
2021/12/14 05:36:44;;;;;;;6.68;5.00;;;;;;;4.78;80.03;101844.72;5090552;28;20027;-50
2021/12/14 05:44:35;;;;;;;11.07;5.50;;;;;;;4.78;79.81;101849.97;5073447;28;20038;-50
2021/12/14 05:47:05;;;;;;;7.13;5.55;;;;;;;4.78;80.20;101850.88;5054498;28;20042;-49
2021/12/14 05:49:30;;;;;;;5.82;5.13;;;;;;;4.78;80.24;101852.56;5089883;28;20024;-50
2021/12/14 05:51:59;;;;;;;7.85;5.97;;;;;;;4.79;80.14;101844.78;5074794;28;20081;-51
2021/12/14 05:54:28;;;;;;;6.85;5.63;;;;;;;4.79;79.67;101846.50;5094582;28;20023;-50
2021/12/14 05:56:54;;;;;;;6.63;5.22;;;;;;;4.79;80.34;101838.66;5093409;28;20038;-50
2021/12/14 05:59:27;;;;;;;6.95;5.57;;;;;;;4.79;79.70;101842.19;5094007;28;20103;-50
2021/12/14 06:01:54;;;;;;;8.40;6.13;;;;;;;4.79;80.22;101836.03;5093662;28;20028;-51
2021/12/14 06:04:20;;;;;;;7.20;5.28;;;;;;;4.80;80.11;101840.47;5076317;28;20407;-49
2021/12/14 06:06:51;;;;;;;6.93;5.28;;;;;;;4.80;79.68;101843.94;5076452;28;20636;-51
2021/12/14 06:09:24;;;;;;;5.63;4.80;;;;;;;4.79;80.04;101836.94;5093708;28;20391;-50
2021/12/14 06:11:57;;;;;;;7.43;5.47;;;;;;;4.81;79.79;101839.63;5094133;28;20024;-51
2021/12/14 06:14:25;;;;;;;6.13;5.13;;;;;;;4.81;79.74;101823.94;5073826;28;20077;-50
2021/12/14 06:16:55;;;;;;;6.38;4.97;;;;;;;4.81;79.86;101829.16;5076082;28;20020;-50
2021/12/14 06:19:34;;;;;;;6.72;5.07;;;;;;;4.81;80.00;101824.84;5094215;28;20048;-51
2021/12/14 06:22:15;;;;;;;5.30;4.45;;;;;;;4.81;79.81;101823.94;5091715;28;20115;-51
2021/12/14 06:24:43;;;;;;;6.80;5.60;;;;;;;4.81;79.63;101818.69;5093229;28;20081;-50
2021/12/14 06:27:11;;;;;;;6.28;4.93;;;;;;;4.82;79.71;101817.84;5092134;28;20135;-51
2021/12/14 06:29:47;;;;;;;6.03;5.05;;;;;;;4.81;79.78;101824.84;5094003;28;20136;-50
2021/12/14 06:32:18;;;;;;;6.38;5.15;;;;;;;4.82;80.39;101825.69;5093583;28;20055;-51
2021/12/14 06:34:52;;;;;;;6.05;4.55;;;;;;;4.81;79.79;101818.69;5092997;28;20036;-51
2021/12/14 06:37:29;;;;;;;6.68;4.55;;;;;;;4.82;79.69;101821.38;5076085;28;20507;-50
2021/12/14 06:40:10;;;;;;;6.53;4.97;;;;;;;4.82;79.88;101823.09;5094287;28;20047;-51
2021/12/14 06:42:37;;;;;;;;;;;;;;;4.83;79.75;101817.00;5092941;28;20081;-51
2021/12/14 06:45:20;;;;;;;5.65;4.63;;;;;;;4.81;79.84;101813.47;5092955;28;19919;-51
2021/12/14 06:47:48;;;;;;;6.72;5.70;;;;;;;4.81;79.94;101808.25;5089512;28;20016;-51
2021/12/14 06:50:17;;;;;;;5.82;5.20;;;;;;;4.82;80.19;101802.19;5093534;28;20028;-50
2021/12/14 06:52:43;;;;;;;6.03;4.75;;;;;;;4.81;79.42;101790.84;5074402;28;20032;-51
2021/12/14 06:55:20;;;;;;;5.82;5.13;;;;;;;4.82;80.29;101797.84;5093341;28;20502;-50
2021/12/14 06:57:47;;;;;;;5.78;5.00;;;;;;;4.83;79.55;101803.94;5092354;28;20028;-51
2021/12/14 07:00:12;;;;;;;6.47;5.65;;;;;;;4.84;79.61;101813.59;5092279;28;20026;-51
2021/12/14 07:02:45;;;;;;;5.95;5.00;;;;;;;4.83;79.47;101811.78;5092468;28;20031;-50
2021/12/14 07:05:20;;;;;;;6.20;5.03;;;;;;;4.84;79.51;101810.97;5092549;28;20047;-50
2021/12/14 07:07:45;;;;;;;6.18;4.63;;;;;;;4.84;80.16;101810.97;5091674;28;20407;-51
2021/12/14 07:10:12;;;;;;;4.85;3.95;;;;;;;4.83;80.02;101815.28;5090009;28;20016;-51
2021/12/14 07:12:38;;;;;;;7.05;5.22;;;;;;;4.84;79.63;101818.81;5091330;28;20051;-51
2021/12/14 07:15:23;;;;;;;6.97;4.93;;;;;;;4.84;79.80;101821.44;5092462;28;20502;-51
2021/12/14 07:18:01;;;;;;;6.28;5.05;;;;;;;4.84;79.66;101814.44;5091125;28;20020;-48
2021/12/14 07:20:34;;;;;;;6.45;5.45;;;;;;;4.84;79.75;101819.69;5089894;28;20111;-50
2021/12/14 07:23:21;;;;;;;5.55;4.85;;;;;;;4.85;79.42;101810.13;5090997;28;20095;-51
2021/12/14 07:25:56;;;;;;;6.63;5.13;;;;;;;4.85;79.40;101816.25;5076151;28;20040;-50
2021/12/14 07:28:22;;;;;;;6.63;5.05;;;;;;;4.85;79.79;101815.34;5092817;28;20027;-50
2021/12/14 07:30:51;;;;;;;6.35;5.00;;;;;;;4.85;79.88;101817.97;5072523;28;20031;-51
2021/12/14 07:33:31;;;;;;;6.53;5.05;;;;;;;4.86;79.56;101827.56;5091722;28;20107;-51
2021/12/14 07:36:03;;;;;;;6.85;4.70;;;;;;;4.86;79.43;101818.03;5074056;28;20073;-51
2021/12/14 07:38:48;;;;;;;6.45;5.20;;;;;;;4.86;79.45;101823.25;5092272;28;20502;-51
2021/12/14 07:41:23;;;;;;;6.57;5.53;;;;;;;4.85;79.56;101829.31;5087243;28;20024;-50
2021/12/14 07:44:11;;;;;;;6.43;5.32;;;;;;;4.84;79.96;101821.44;5091640;28;20056;-50
2021/12/14 07:46:42;;;;;;;6.47;5.05;;;;;;;4.85;79.93;101831.94;5092490;28;20056;-50
2021/12/14 07:49:18;;;;;;;7.30;4.93;;;;;;;4.87;79.65;101834.59;5092417;28;20460;-50
2021/12/14 07:51:45;;;;;;;4.82;4.32;;;;;;;4.87;79.84;101832.00;5089415;28;20031;-50
2021/12/14 07:54:19;;;;;;;6.90;4.93;;;;;;;4.87;79.44;101834.59;5072008;28;20630;-51
2021/12/14 07:56:50;;;;;;;5.13;4.63;;;;;;;4.86;79.80;101840.66;5093150;28;20533;-51
2021/12/14 07:59:25;;;;;;;5.75;4.82;;;;;;;4.87;79.92;101840.69;5093033;28;20031;-50
2021/12/14 08:02:07;;;;;;;4.82;4.32;;;;;;;4.87;79.46;101830.25;5091555;28;20045;-51
2021/12/14 08:04:34;;;;;;;6.63;4.82;;;;;;;4.87;79.48;101839.84;5090178;28;20483;-49
2021/12/14 08:06:59;;;;;;;6.95;4.95;;;;;;;4.88;79.99;101841.59;5088703;28;20035;-50
2021/12/14 08:09:44;;;;;;;6.45;5.30;;;;;;;4.88;79.45;101839.00;5091450;28;20009;-50
2021/12/14 08:12:11;;;;;;;5.80;4.25;;;;;;;4.89;79.99;101853.81;5090049;28;20059;-50
2021/12/14 08:14:36;;;;;;;5.13;4.57;;;;;;;4.87;79.49;101845.94;5087420;28;20052;-50
2021/12/14 08:17:09;;;;;;;5.60;4.75;;;;;;;4.88;79.44;101847.69;5090458;28;20028;-50
2021/12/14 08:19:38;;;;;;;5.82;4.82;;;;;;;4.89;79.19;101851.22;5091163;28;20027;-50
2021/12/14 08:22:26;;;;;;;5.00;4.40;;;;;;;4.89;79.94;101851.22;5072733;28;20603;-51
2021/12/14 08:24:55;;;;;;;6.68;5.03;;;;;;;4.88;79.65;101846.84;5089840;28;20070;-51
2021/12/14 08:27:23;;;;;;;5.38;4.63;;;;;;;4.89;79.78;101859.06;5087670;28;20016;-50
2021/12/14 08:29:57;;;;;;;5.88;3.97;;;;;;;4.90;79.96;101846.88;5091383;28;20027;-50
2021/12/14 08:32:27;;;;;;;5.38;4.47;;;;;;;4.89;79.15;101851.22;5089357;28;20110;-51
2021/12/14 08:34:55;;;;;;;5.43;4.47;;;;;;;4.90;79.80;101857.34;5057011;28;20034;-51
2021/12/14 08:37:33;;;;;;;6.47;4.93;;;;;;;4.90;79.51;101863.44;5089342;28;20392;-47
2021/12/14 08:40:09;;;;;;;5.32;4.40;;;;;;;4.90;79.65;101870.41;5089349;28;20459;-51
2021/12/14 08:42:48;;;;;;;5.53;4.63;;;;;;;4.90;79.35;101868.66;5088935;28;20111;-50
2021/12/14 08:45:29;;;;;;;5.05;4.47;;;;;;;4.90;79.47;101870.41;5088744;28;20574;-51
2021/12/14 08:48:08;;;;;;;5.28;4.72;;;;;;;4.91;80.04;101878.31;5089766;28;20035;-51
2021/12/14 08:50:44;;;;;;;6.80;4.55;;;;;;;4.89;79.74;101885.19;5090634;28;20518;-51
2021/12/14 08:53:32;;;;;;;5.45;4.95;;;;;;;4.90;79.30;101897.44;5091093;28;20030;-51
2021/12/14 08:55:59;;;;;;;5.53;4.57;;;;;;;4.92;79.95;101894.88;5089002;28;20031;-50
2021/12/14 08:58:27;;;;;;;5.82;5.00;;;;;;;4.92;79.75;101890.53;5089299;28;20034;-51
2021/12/14 09:00:57;;;;;;;5.10;4.60;;;;;;;4.92;79.75;101894.88;5054615;28;20107;-51
2021/12/14 09:03:33;;;;;;;6.53;4.70;;;;;;;4.92;79.72;101897.47;5088159;28;20059;-51
2021/12/14 09:06:04;;;;;;;5.40;4.70;;;;;;;4.92;79.94;101895.78;5087414;28;20599;-50
2021/12/14 09:08:30;;;;;;;4.88;4.18;;;;;;;4.92;79.32;101898.38;5085956;28;20024;-51
2021/12/14 09:10:56;;;;;;;5.40;4.60;;;;;;;4.92;79.92;101894.88;5090435;28;20498;-51
2021/12/14 09:13:23;;;;;;;5.45;4.47;;;;;;;4.92;79.35;101898.38;5090751;28;20016;-50
2021/12/14 09:15:55;;;;;;;5.45;4.55;;;;;;;4.93;79.21;101897.53;5090109;28;20441;-50
2021/12/14 09:18:22;;;;;;;5.82;4.60;;;;;;;4.93;79.52;101894.94;5089288;28;20020;-51
2021/12/14 09:20:55;;;;;;;5.22;4.18;;;;;;;4.92;79.30;101901.00;5090086;28;20036;-51
2021/12/14 09:23:28;;;;;;;6.35;5.07;;;;;;;4.92;79.25;101898.38;5088829;28;20016;-50
2021/12/14 09:25:55;;;;;;;6.80;4.72;;;;;;;4.94;79.73;101895.81;5090274;28;20480;-50
2021/12/14 09:28:21;;;;;;;5.00;4.28;;;;;;;4.93;79.42;101897.53;5089075;28;20400;-51
2021/12/14 09:30:51;;;;;;;5.95;4.82;;;;;;;4.93;79.65;101896.66;5092004;28;20371;-50
2021/12/14 09:33:17;;;;;;;39.80;23.98;;;;;;;4.93;79.82;101887.09;5071882;28;20052;-50
2021/12/14 09:35:46;;;;;;;24.02;15.88;;;;;;;4.94;79.26;101888.84;5071502;28;20089;-51
2021/12/14 09:38:13;;;;;;;10.93;7.40;;;;;;;4.95;79.32;101882.81;5090500;28;20024;-50
2021/12/14 09:40:48;;;;;;;21.73;13.20;;;;;;;4.95;79.95;101880.19;5067972;28;20056;-50
2021/12/14 09:43:14;;;;;;;11.25;7.93;;;;;;;4.94;80.10;101875.78;5087011;28;20391;-51
2021/12/14 09:45:45;;;;;;;11.93;9.10;;;;;;;4.95;79.92;101869.72;5087198;28;20131;-51
2021/12/14 09:48:22;;;;;;;11.13;7.78;;;;;;;4.94;79.86;101865.31;5088506;28;20095;-51
2021/12/14 09:50:50;;;;;;;10.50;7.68;;;;;;;4.94;79.67;101852.25;5071508;28;20077;-51
2021/12/14 09:53:18;;;;;;;13.68;8.55;;;;;;;4.96;79.32;101861.03;5089278;28;20020;-49
2021/12/14 09:56:06;;;;;;;7.88;5.72;;;;;;;4.95;79.31;101854.03;5073608;28;20028;-51
2021/12/14 09:58:43;;;;;;;9.85;6.93;;;;;;;4.96;79.37;101853.19;5086804;28;20117;-51
2021/12/14 10:01:17;;;;;;;11.65;8.38;;;;;;;4.95;79.57;101843.59;5070895;28;20020;-51
2021/12/14 10:03:44;;;;;;;8.65;7.55;;;;;;;4.96;79.56;101837.50;5089313;28;20016;-50
2021/12/14 10:06:15;;;;;;;11.15;7.78;;;;;;;4.96;79.88;101842.75;5089835;28;20024;-50
2021/12/14 10:08:47;;;;;;;9.73;7.00;;;;;;;4.96;79.51;101824.44;5061223;28;20028;-50
2021/12/14 10:11:26;;;;;;;8.75;6.57;;;;;;;4.97;79.43;101839.28;5086588;28;20084;-51
2021/12/14 10:13:55;;;;;;;8.38;6.13;;;;;;;4.96;79.76;101832.28;5089914;28;20016;-49
2021/12/14 10:16:20;;;;;;;10.80;7.03;;;;;;;4.97;79.41;101830.56;5086861;28;20552;-50
2021/12/14 10:18:51;;;;;;;10.90;7.85;;;;;;;4.97;79.93;101830.56;5088305;28;20118;-51
2021/12/14 10:21:26;;;;;;;8.68;6.90;;;;;;;4.97;79.56;101820.97;5089161;28;20097;-51
2021/12/14 10:23:52;;;;;;;8.93;6.57;;;;;;;4.98;79.78;101827.09;5089973;28;20093;-51
2021/12/14 10:26:19;;;;;;;9.55;6.82;;;;;;;4.97;79.78;101828.81;5054751;28;20032;-50
2021/12/14 10:28:46;;;;;;;8.63;6.35;;;;;;;4.97;79.51;101831.44;5088428;28;20445;-51
2021/12/14 10:31:18;;;;;;;8.48;6.32;;;;;;;4.98;79.47;101835.84;5089315;28;20028;-50
2021/12/14 10:33:44;;;;;;;7.95;5.50;;;;;;;4.99;79.34;101834.09;5085910;28;20484;-51
2021/12/14 10:36:24;;;;;;;10.15;7.32;;;;;;;4.98;79.15;101835.84;5086377;28;20031;-50
2021/12/14 10:44:20;;;;;;;8.15;6.63;;;;;;;4.99;79.86;101842.84;5054449;28;1005819;-51
2021/12/14 10:46:49;;;;;;;8.25;6.78;;;;;;;4.99;79.76;101834.09;5091720;28;20086;-51
2021/12/14 10:49:17;;;;;;;9.02;6.20;;;;;;;4.99;79.98;101826.25;5075982;28;20020;-51
2021/12/14 10:51:45;;;;;;;9.02;6.28;;;;;;;5.00;79.99;101822.78;5093354;28;20046;-51
2021/12/14 10:54:14;;;;;;;8.52;6.13;;;;;;;4.99;79.45;101819.31;5074807;28;20491;-51
2021/12/14 10:56:45;;;;;;;8.63;6.18;;;;;;;5.00;79.40;101820.19;5075551;28;20197;-51
2021/12/14 10:59:16;;;;;;;9.00;6.30;;;;;;;5.00;79.76;101822.78;5091024;28;20024;-51
2021/12/14 11:01:48;;;;;;;8.55;6.03;;;;;;;5.00;79.85;101826.31;5088723;28;20289;-50
2021/12/14 11:04:15;;;;;;;7.97;6.22;;;;;;;5.00;79.15;101836.78;5088635;28;20023;-50
2021/12/14 11:06:45;;;;;;;10.18;6.63;;;;;;;5.01;79.84;101833.31;5074879;28;20035;-51
2021/12/14 11:09:42;;;;;;;10.23;7.68;;;;;;;5.01;79.40;101842.91;5093513;28;20023;-51
2021/12/14 11:12:24;;;;;;;7.57;6.43;;;;;;;5.00;79.72;101839.38;5091629;28;20043;-50
2021/12/14 11:14:54;;;;;;;10.32;6.50;;;;;;;5.00;79.80;101828.94;5091174;28;20016;-51
2021/12/14 11:20:14;;;;;;;8.40;6.35;;;;;;;5.01;79.25;101837.66;5092106;28;20534;-50
2021/12/14 11:22:53;;;;;;;8.40;6.40;;;;;;;5.01;79.54;101833.31;5092923;28;20028;-51
2021/12/14 11:25:23;;;;;;;10.48;7.13;;;;;;;5.03;80.00;101832.50;5092714;28;20120;-50
2021/12/14 11:27:55;;;;;;;8.02;6.40;;;;;;;5.02;79.64;101818.53;5092868;28;20495;-50
2021/12/14 11:30:24;;;;;;;7.18;6.47;;;;;;;5.03;79.53;101819.41;5091757;28;20023;-50
2021/12/14 11:33:22;;;;;;;7.90;6.57;;;;;;;5.03;79.20;101814.19;5092096;28;20054;-51
2021/12/14 11:36:35;;;;;;;9.20;7.00;;;;;;;5.03;79.74;101815.06;5092122;28;20034;-50
2021/12/14 11:39:23;;;;;;;9.60;6.07;;;;;;;5.01;80.09;101817.63;5090039;28;20040;-51
2021/12/14 11:41:54;;;;;;;8.98;6.72;;;;;;;5.01;79.94;101822.84;5090038;28;20158;-50
2021/12/14 11:44:35;;;;;;;9.77;7.20;;;;;;;5.03;79.74;101814.19;5073454;28;20038;-51
2021/12/14 11:47:42;;;;;;;7.75;6.18;;;;;;;5.03;79.79;101816.81;5087683;28;20043;-51
2021/12/14 11:50:28;;;;;;;11.13;7.38;;;;;;;5.04;80.06;101826.41;5090516;28;20020;-51
2021/12/14 11:52:57;;;;;;;8.60;6.82;;;;;;;5.01;79.94;101828.06;5088984;28;20103;-51
2021/12/14 11:55:34;;;;;;;9.32;6.55;;;;;;;5.04;79.45;101826.41;5091979;28;20137;-50
2021/12/14 11:58:25;;;;;;;11.60;7.70;;;;;;;5.04;79.49;101821.19;5091104;28;20204;-51
2021/12/14 12:01:18;;;;;;;8.40;6.22;;;;;;;5.04;79.74;101821.19;5091162;28;20084;-50
2021/12/14 12:04:08;;;;;;;10.77;7.75;;;;;;;5.04;79.77;101823.81;5091332;28;20534;-52
2021/12/14 12:09:35;;;;;;;10.23;7.53;;;;;;;5.04;79.42;101821.19;5090090;28;20446;-51
2021/12/14 12:12:11;;;;;;;9.10;7.18;;;;;;;5.04;79.43;101819.47;5090723;28;20415;-50
2021/12/14 12:14:51;;;;;;;9.80;7.70;;;;;;;5.04;79.81;101816.84;5089580;28;20029;-51
2021/12/14 12:17:32;;;;;;;10.60;7.32;;;;;;;5.05;79.94;101809.88;5091657;28;20016;-51
2021/12/14 12:20:12;;;;;;;11.02;7.53;;;;;;;5.06;79.16;101801.19;5090461;28;20027;-51
2021/12/14 12:22:47;;;;;;;8.60;7.00;;;;;;;5.05;80.09;101802.03;5071330;28;20676;-51
2021/12/14 12:25:17;;;;;;;9.60;7.00;;;;;;;5.05;79.55;101796.81;5068482;28;20023;-51
2021/12/14 12:27:46;;;;;;;10.00;7.40;;;;;;;5.07;79.56;101795.13;5087431;28;20126;-51
2021/12/14 12:30:34;;;;;;;11.43;7.68;;;;;;;5.07;80.06;101792.53;5086846;28;20020;-51
2021/12/14 12:33:22;;;;;;;10.18;7.80;;;;;;;5.07;79.38;101789.91;5087945;28;20088;-49
2021/12/14 12:36:19;;;;;;;9.65;7.68;;;;;;;5.07;79.51;101782.94;5087888;28;20487;-49
2021/12/14 12:39:03;;;;;;;11.00;8.70;;;;;;;5.07;79.59;101787.28;5086126;28;20036;-49
2021/12/14 12:41:32;;;;;;;9.23;7.10;;;;;;;5.07;79.88;101792.53;5068221;28;20027;-48
2021/12/14 12:44:10;;;;;;;11.15;7.85;;;;;;;5.07;79.89;101795.13;5088705;28;20019;-49
2021/12/14 12:46:40;;;;;;;13.18;8.85;;;;;;;5.08;79.89;101791.69;5087547;28;20023;-50